Iver Prosperity — V7LP8 — position and weather

sailwx.info

Track history (hours):
 
Tides and Currents Weather Stations Pressure Air Temp Water Temp Dewpoint Dewpoint Depression Visibility Wind Speed Wind Dir Waves Ship Positions

Iver Prosperity

Last reported at 2017-Dec-10 22:36 UTC. Time now 2017-Dec-13 17:05 UTC.
Position N 41°48' W 071°24'.

Length 184 m; draft 7.8 m.

Type: Ship (hazmat cat A). MMSI: 538002784.

Date/timePositionNaut miles runAvg speedWind from/ knotsBaromVisibWave heightAir tempDewpointWater temp
2017-Dec-10 22:36N 41°48' W 071°24'0 0.5
2017-Dec-10 22:29N 41°48' W 071°24'1 1.5
2017-Dec-10 22:00N 41°48' W 071°23'4 7.4
2017-Dec-10 21:30N 41°44' W 071°22'5 8.9
2017-Dec-10 21:00N 41°40' W 071°19'510.3
2017-Dec-10 20:28N 41°35' W 071°19'  
2017-Dec-02 22:06N 42°50' W 069°57'114.9
2017-Dec-02 22:00N 42°49' W 069°59'815.0
2017-Dec-02 21:30N 42°45' W 070°08'714.9
2017-Dec-02 21:01N 42°41' W 070°16'714.9
2017-Dec-02 20:30N 42°37' W 070°25'715.0
2017-Dec-02 20:01N 42°33' W 070°33'815.1
2017-Dec-02 19:30N 42°29' W 070°42'714.7
2017-Dec-02 19:01N 42°24' W 070°50'611.7
2017-Dec-02 18:30N 42°21' W 070°56'5 9.5
2017-Dec-02 18:00N 42°22' W 071°03'2 3.5
2017-Dec-02 17:30N 42°23' W 071°02'1 1.8
2017-Dec-02 17:00N 42°24' W 071°01'0 0.0
2017-Dec-02 14:00N 42°24' W 071°01'0 0.0
2017-Dec-02 13:24N 42°24' W 071°01'0 0.0
2017-Dec-02 10:54N 42°24' W 071°01'0 0.0
2017-Dec-02 10:30N 42°24' W 071°01'0 0.0
2017-Dec-02 09:48N 42°24' W 071°01'0 0.0
2017-Dec-02 09:30N 42°24' W 071°01'0 0.0
2017-Dec-02 09:00N 42°24' W 071°01'0 0.0
2017-Dec-02 08:21N 42°24' W 071°01'0 0.0
2017-Dec-02 08:00N 42°24' W 071°01'0 0.0
2017-Dec-02 07:27N 42°24' W 071°01'0 0.0
2017-Dec-02 07:00N 42°24' W 071°01'0 0.0
2017-Dec-02 06:27N 42°24' W 071°01'0 0.0
2017-Dec-02 05:54N 42°24' W 071°01'0 0.0
2017-Dec-02 05:15N 42°24' W 071°01'0 0.0
2017-Dec-02 04:51N 42°24' W 071°01'0 0.0
2017-Dec-02 04:30N 42°24' W 071°01'0 0.0
2017-Dec-02 04:00N 42°24' W 071°01'0 0.0
2017-Dec-02 03:24N 42°24' W 071°01'0 0.0
2017-Dec-02 02:54N 42°24' W 071°01'0 0.0
2017-Dec-01 19:24N 42°24' W 071°01'0 0.0
2017-Dec-01 13:48N 42°24' W 071°01'0 0.0
2017-Dec-01 12:44N 42°24' W 071°01'0 1.7
2017-Dec-01 12:30N 42°23' W 071°01'1 2.8
2017-Dec-01 12:00N 42°23' W 071°03'2 3.9
2017-Dec-01 11:30N 42°21' W 071°02'2 3.1
2017-Dec-01 11:00N 42°20' W 070°60'1 1.9
2017-Dec-01 10:28N 42°20' W 070°59'0 0.1
2017-Dec-01 09:58N 42°20' W 070°59'0 0.0
2017-Dec-01 09:28N 42°20' W 070°59'0 0.0
2017-Dec-01 08:58N 42°20' W 070°59'0 0.3
2017-Dec-01 08:28N 42°20' W 070°58'0 0.2
2017-Dec-01 07:58N 42°20' W 070°58'0 0.0
2017-Dec-01 07:25N 42°20' W 070°58'0 0.0
2017-Dec-01 06:58N 42°20' W 070°58'0 0.0
2017-Dec-01 06:28N 42°20' W 070°58'0 0.0
2017-Dec-01 05:58N 42°20' W 070°58'0 0.0
2017-Dec-01 05:28N 42°20' W 070°58'0 0.0
2017-Dec-01 04:58N 42°20' W 070°58'0 0.1
2017-Dec-01 04:28N 42°20' W 070°58'0 0.1
2017-Dec-01 03:58N 42°20' W 070°58'0 0.1
2017-Dec-01 03:28N 42°20' W 070°59'0 0.1
2017-Dec-01 02:58N 42°20' W 070°59'0 0.1
2017-Dec-01 02:28N 42°20' W 070°59'0 0.0
2017-Dec-01 01:58N 42°20' W 070°59'0 0.0
2017-Dec-01 01:28N 42°20' W 070°59'0 0.1
2017-Dec-01 00:58N 42°20' W 070°59'0 0.0
2017-Dec-01 00:28N 42°20' W 070°59'0 0.0
2017-Nov-30 23:58N 42°20' W 070°59'0 0.0
2017-Nov-30 23:28N 42°20' W 070°59'0 0.1
2017-Nov-30 22:58N 42°20' W 070°59'  
Track history (hours):
 
Tides and Currents Weather Stations Pressure Air Temp Water Temp Dewpoint Dewpoint Depression Visibility Wind Speed Wind Dir Waves Ship Positions

Iver Prosperity

Last reported at 2017-Dec-10 22:36 UTC. Time now 2017-Dec-13 17:05 UTC.
Position N 41°48' W 071°24'.

Length 184 m; draft 7.8 m.

Type: Ship (hazmat cat A). MMSI: 538002784.

Date/timePositionNaut miles runAvg speedWind from/ knotsBaromVisibWave heightAir tempDewpointWater temp
2017-Dec-10 22:36N 41°48' W 071°24'0 0.5
2017-Dec-10 22:29N 41°48' W 071°24'1 1.5
2017-Dec-10 22:00N 41°48' W 071°23'4 7.4
2017-Dec-10 21:30N 41°44' W 071°22'5 8.9
2017-Dec-10 21:00N 41°40' W 071°19'510.3
2017-Dec-10 20:28N 41°35' W 071°19'  
2017-Dec-02 22:06N 42°50' W 069°57'114.9
2017-Dec-02 22:00N 42°49' W 069°59'815.0
2017-Dec-02 21:30N 42°45' W 070°08'714.9
2017-Dec-02 21:01N 42°41' W 070°16'714.9
2017-Dec-02 20:30N 42°37' W 070°25'715.0
2017-Dec-02 20:01N 42°33' W 070°33'815.1
2017-Dec-02 19:30N 42°29' W 070°42'714.7
2017-Dec-02 19:01N 42°24' W 070°50'611.7
2017-Dec-02 18:30N 42°21' W 070°56'5 9.5
2017-Dec-02 18:00N 42°22' W 071°03'2 3.5
2017-Dec-02 17:30N 42°23' W 071°02'1 1.8
2017-Dec-02 17:00N 42°24' W 071°01'0 0.0
2017-Dec-02 14:00N 42°24' W 071°01'0 0.0
2017-Dec-02 13:24N 42°24' W 071°01'0 0.0
2017-Dec-02 10:54N 42°24' W 071°01'0 0.0
2017-Dec-02 10:30N 42°24' W 071°01'0 0.0
2017-Dec-02 09:48N 42°24' W 071°01'0 0.0
2017-Dec-02 09:30N 42°24' W 071°01'0 0.0
2017-Dec-02 09:00N 42°24' W 071°01'0 0.0
2017-Dec-02 08:21N 42°24' W 071°01'0 0.0
2017-Dec-02 08:00N 42°24' W 071°01'0 0.0
2017-Dec-02 07:27N 42°24' W 071°01'0 0.0
2017-Dec-02 07:00N 42°24' W 071°01'0 0.0
2017-Dec-02 06:27N 42°24' W 071°01'0 0.0
2017-Dec-02 05:54N 42°24' W 071°01'0 0.0
2017-Dec-02 05:15N 42°24' W 071°01'0 0.0
2017-Dec-02 04:51N 42°24' W 071°01'0 0.0
2017-Dec-02 04:30N 42°24' W 071°01'0 0.0
2017-Dec-02 04:00N 42°24' W 071°01'0 0.0
2017-Dec-02 03:24N 42°24' W 071°01'0 0.0
2017-Dec-02 02:54N 42°24' W 071°01'0 0.0
2017-Dec-01 19:24N 42°24' W 071°01'0 0.0
2017-Dec-01 13:48N 42°24' W 071°01'0 0.0
2017-Dec-01 12:44N 42°24' W 071°01'0 1.7
2017-Dec-01 12:30N 42°23' W 071°01'1 2.8
2017-Dec-01 12:00N 42°23' W 071°03'2 3.9
2017-Dec-01 11:30N 42°21' W 071°02'2 3.1
2017-Dec-01 11:00N 42°20' W 070°60'1 1.9
2017-Dec-01 10:28N 42°20' W 070°59'0 0.1
2017-Dec-01 09:58N 42°20' W 070°59'0 0.0
2017-Dec-01 09:28N 42°20' W 070°59'0 0.0
2017-Dec-01 08:58N 42°20' W 070°59'0 0.3
2017-Dec-01 08:28N 42°20' W 070°58'0 0.2
2017-Dec-01 07:58N 42°20' W 070°58'0 0.0
2017-Dec-01 07:25N 42°20' W 070°58'0 0.0
2017-Dec-01 06:58N 42°20' W 070°58'0 0.0
2017-Dec-01 06:28N 42°20' W 070°58'0 0.0
2017-Dec-01 05:58N 42°20' W 070°58'0 0.0
2017-Dec-01 05:28N 42°20' W 070°58'0 0.0
2017-Dec-01 04:58N 42°20' W 070°58'0 0.1
2017-Dec-01 04:28N 42°20' W 070°58'0 0.1
2017-Dec-01 03:58N 42°20' W 070°58'0 0.1
2017-Dec-01 03:28N 42°20' W 070°59'0 0.1
2017-Dec-01 02:58N 42°20' W 070°59'0 0.1
2017-Dec-01 02:28N 42°20' W 070°59'0 0.0
2017-Dec-01 01:58N 42°20' W 070°59'0 0.0
2017-Dec-01 01:28N 42°20' W 070°59'0 0.1
2017-Dec-01 00:58N 42°20' W 070°59'0 0.0
2017-Dec-01 00:28N 42°20' W 070°59'0 0.0
2017-Nov-30 23:58N 42°20' W 070°59'0 0.0
2017-Nov-30 23:28N 42°20' W 070°59'0 0.1
2017-Nov-30 22:58N 42°20' W 070°59'  

Dump ship's entire track history